Time,TemperatureF,DewpointF,PressureIn,WindDirection,WindDirectionDegrees,WindSpeedMPH,WindSpeedGustMPH,Humidity,HourlyPrecipIn,Conditions,Clouds,dailyrainin,SolarRadiationWatts/m^2,SoftwareType,DateUTC
2013-04-26 00:01:00,34.0,21.0,-100.00,North,349,0.0,0.0,59,0.00,,,0.00,0.000000,,2013-04-26 07:01:00,
2013-04-26 01:02:00,34.0,18.0,-100.00,North,5,0.0,0.0,51,-99.99,,,0.00,0.000000,,2013-04-26 08:02:00,
2013-04-26 01:31:00,34.0,18.0,-100.00,North,5,0.0,0.0,51,-99.99,,,0.00,0.000000,,2013-04-26 08:31:00,
2013-04-26 02:01:00,33.0,17.0,-100.00,North,354,0.0,0.0,51,0.00,,,0.00,0.000000,,2013-04-26 09:01:00,
2013-04-26 02:11:00,33.0,17.0,-100.00,North,354,0.0,0.0,51,0.00,,,0.00,0.000000,,2013-04-26 09:11:00,
2013-04-26 02:21:00,33.0,17.0,-100.00,North,354,0.0,0.0,51,0.00,,,0.00,0.000000,,2013-04-26 09:21:00,
2013-04-26 02:32:00,33.0,17.0,-100.00,North,354,0.0,0.0,51,0.00,,,0.00,0.000000,,2013-04-26 09:32:00,
2013-04-26 03:03:00,32.0,16.0,-100.00,NNW,341,0.0,0.0,51,0.00,,,0.00,0.000000,,2013-04-26 10:03:00,
2013-04-26 03:32:00,32.0,16.0,-100.00,NNW,341,0.0,0.0,51,0.00,,,0.00,0.000000,,2013-04-26 10:32:00,
2013-04-26 04:02:00,33.0,17.0,-100.00,North,357,0.0,0.0,52,0.00,,,0.00,0.000000,,2013-04-26 11:02:00,
2013-04-26 04:11:00,33.0,17.0,-100.00,North,357,0.0,0.0,52,0.00,,,0.00,0.000000,,2013-04-26 11:11:00,
2013-04-26 04:22:00,33.0,17.0,-100.00,North,357,0.0,0.0,52,0.00,,,0.00,0.000000,,2013-04-26 11:22:00,
2013-04-26 04:32:00,33.0,17.0,-100.00,North,357,0.0,0.0,52,0.00,,,0.00,0.000000,,2013-04-26 11:32:00,
2013-04-26 05:01:00,33.0,15.0,-100.00,North,349,0.0,0.0,47,0.00,,,0.00,0.000000,,2013-04-26 12:01:00,
2013-04-26 05:11:00,33.0,15.0,-100.00,North,349,0.0,0.0,47,0.00,,,0.00,0.000000,,2013-04-26 12:11:00,
2013-04-26 05:21:00,33.0,15.0,-100.00,North,349,0.0,0.0,47,0.00,,,0.00,0.000000,,2013-04-26 12:21:00,
2013-04-26 05:32:00,33.0,15.0,-100.00,North,349,0.0,0.0,47,0.00,,,0.00,0.000000,,2013-04-26 12:32:00,
2013-04-26 06:01:00,33.0,12.0,-100.00,North,5,0.0,0.0,41,0.00,,,0.00,0.000000,,2013-04-26 13:01:00,
2013-04-26 06:11:00,33.0,12.0,-100.00,North,5,0.0,0.0,41,0.00,,,0.00,0.000000,,2013-04-26 13:11:00,
2013-04-26 06:21:00,33.0,12.0,-100.00,North,5,0.0,0.0,41,0.00,,,0.00,0.000000,,2013-04-26 13:21:00,
2013-04-26 06:31:00,33.0,12.0,-100.00,North,5,0.0,0.0,41,0.00,,,0.00,0.000000,,2013-04-26 13:31:00,
2013-04-26 07:01:00,32.0,8.0,-100.00,North,350,0.0,0.0,36,0.00,,,0.00,6.000000,,2013-04-26 14:01:00,
2013-04-26 07:11:00,32.0,8.0,-100.00,North,350,0.0,0.0,36,0.00,,,0.00,6.000000,,2013-04-26 14:11:00,
2013-04-26 07:21:00,32.0,8.0,-100.00,North,350,0.0,0.0,36,0.00,,,0.00,6.000000,,2013-04-26 14:21:00,
2013-04-26 08:01:00,47.0,16.0,-100.00,North,356,0.0,0.0,29,0.00,,,0.00,99.000000,,2013-04-26 15:01:00,
2013-04-26 08:11:00,47.0,16.0,-100.00,North,356,0.0,0.0,29,0.00,,,0.00,99.000000,,2013-04-26 15:11:00,
2013-04-26 08:21:00,47.0,16.0,-100.00,North,356,0.0,0.0,29,0.00,,,0.00,99.000000,,2013-04-26 15:21:00,
2013-04-26 08:33:00,47.0,16.0,-100.00,North,356,0.0,0.0,29,0.00,,,0.00,99.000000,,2013-04-26 15:33:00,
2013-04-26 09:03:00,67.0,9.0,-100.00,WSW,252,0.0,5.0,10,0.00,,,0.00,478.000000,,2013-04-26 16:03:00,
2013-04-26 10:02:00,68.0,12.0,-100.00,North,11,3.0,8.0,11,-99.99,,,0.00,747.000000,,2013-04-26 17:02:00,
2013-04-26 11:02:00,69.0,12.0,-100.00,NNE,22,3.0,11.0,11,-99.99,,,0.00,973.000000,,2013-04-26 18:02:00,
2013-04-26 12:01:00,67.0,16.0,-100.00,WNW,288,4.0,12.0,14,-99.99,,,0.00,1135.000000,,2013-04-26 19:01:00,
2013-04-26 12:11:00,67.0,16.0,-100.00,WNW,288,4.0,12.0,14,-99.99,,,0.00,1135.000000,,2013-04-26 19:11:00,
2013-04-26 12:22:00,67.0,16.0,-100.00,WNW,288,4.0,12.0,14,-99.99,,,0.00,1135.000000,,2013-04-26 19:22:00,
2013-04-26 12:31:00,67.0,16.0,-100.00,WNW,288,4.0,12.0,14,-99.99,,,0.00,1135.000000,,2013-04-26 19:31:00,
2013-04-26 13:02:00,67.0,16.0,-100.00,NE,44,4.0,13.0,14,0.00,,,0.00,1223.000000,,2013-04-26 20:02:00,
2013-04-26 13:11:00,67.0,16.0,-100.00,NE,44,4.0,13.0,14,0.00,,,0.00,1223.000000,,2013-04-26 20:11:00,
2013-04-26 13:21:00,67.0,16.0,-100.00,NE,44,4.0,13.0,14,0.00,,,0.00,1223.000000,,2013-04-26 20:21:00,
2013-04-26 13:32:00,67.0,16.0,-100.00,NE,44,4.0,13.0,14,0.00,,,0.00,1223.000000,,2013-04-26 20:32:00,
2013-04-26 14:01:00,70.0,17.0,-100.00,North,11,4.0,13.0,13,0.00,,,0.00,1240.000000,,2013-04-26 21:01:00,
2013-04-26 15:02:00,71.0,14.0,-100.00,North,0,2.0,12.0,11,-99.99,,,0.00,1190.000000,,2013-04-26 22:02:00,
2013-04-26 16:01:00,70.0,11.0,-100.00,North,349,4.0,11.0,10,-99.99,,,0.00,961.000000,,2013-04-26 23:01:00,
2013-04-26 17:01:00,70.0,13.0,-100.00,NW,309,1.0,8.0,11,-99.99,,,-99.99,589.000000,,2013-04-27 00:01:00,
2013-04-26 18:01:00,64.0,22.0,-100.00,WSW,237,1.0,8.0,20,-99.99,,,0.00,547.000000,,2013-04-27 01:01:00,
2013-04-26 18:11:00,64.0,22.0,-100.00,WSW,237,1.0,8.0,20,-99.99,,,0.00,547.000000,,2013-04-27 01:11:00,
2013-04-26 18:21:00,64.0,22.0,-100.00,WSW,237,1.0,8.0,20,-99.99,,,0.00,547.000000,,2013-04-27 01:21:00,
2013-04-26 18:31:00,64.0,22.0,-100.00,WSW,237,1.0,8.0,20,-99.99,,,0.00,547.000000,,2013-04-27 01:31:00,
2013-04-26 19:01:00,59.0,20.0,-100.00,WSW,252,1.0,9.0,22,0.00,,,0.00,73.000000,,2013-04-27 02:01:00,
2013-04-26 20:02:00,53.0,17.0,-100.00,SSE,151,0.0,7.0,24,0.00,,,0.00,27.000000,,2013-04-27 03:02:00,
2013-04-26 21:02:00,44.0,18.0,-100.00,North,6,0.0,0.0,35,0.00,,,0.00,0.000000,,2013-04-27 04:02:00,
2013-04-26 21:33:00,44.0,18.0,-100.00,North,6,0.0,0.0,35,0.00,,,0.00,0.000000,,2013-04-27 04:33:00,
2013-04-26 22:02:00,42.0,18.0,-100.00,North,9,0.0,0.0,37,0.00,,,0.00,0.000000,,2013-04-27 05:02:00,
2013-04-26 22:12:00,42.0,18.0,-100.00,North,9,0.0,0.0,37,0.00,,,0.00,0.000000,,2013-04-27 05:12:00,
2013-04-26 22:22:00,42.0,18.0,-100.00,North,9,0.0,0.0,37,0.00,,,0.00,0.000000,,2013-04-27 05:22:00,
2013-04-26 22:31:00,42.0,18.0,-100.00,North,9,0.0,0.0,37,0.00,,,0.00,0.000000,,2013-04-27 05:31:00,
2013-04-26 23:01:00,42.0,16.0,-100.00,North,350,0.0,0.0,34,0.00,,,0.00,0.000000,,2013-04-27 06:01:00,
2013-04-26 23:12:00,42.0,16.0,-100.00,North,350,0.0,0.0,34,0.00,,,0.00,0.000000,,2013-04-27 06:12:00,
2013-04-26 23:22:00,42.0,16.0,-100.00,North,350,0.0,0.0,34,0.00,,,0.00,0.000000,,2013-04-27 06:22:00,
2013-04-26 23:32:00,42.0,16.0,-100.00,North,350,0.0,0.0,34,0.00,,,0.00,0.000000,,2013-04-27 06:32:00,